KEAT

Pangborn Memorial Airport

Airport
ICAO code
KEAT
Summary
ICAO Region
NAM
ICAO Territory
Location

Wenatchee, Washington,

Elevation
1249 ft
Coordinates
47° 23' 55" N , 120° 12' 24" W
KCC
Airport CFIT
Altimeter Temperature Error Correction
Airport WX
Mountain Waves
Metar
KEAT 291255Z AUTO 30007KT 10SM CLR 07/03 A2993 RMK AO2 SLP135 T00670028 $

Description

Pangborn Memorial Airport is a public use airport in Douglas County, Washington, located 7 km east of the central business district of Wenatchee.

Climatology

Semi-arid climate (Köppen climate classification BSk) - Little precipitation, hot summers and cold winters, sometimes with large changes in temperature in a 24 hour period.

Airport map

Aerial View

SKYbrary Partners:

Safety knowledge contributed by: